createdAt,value
2023-04-01T00:01:51.050Z,9.87
2023-04-01T00:04:18.591Z,10.15
2023-04-01T00:06:45.796Z,10.15
2023-04-01T00:09:12.870Z,10.38
2023-04-01T00:11:40.736Z,10.12
2023-04-01T00:14:08.887Z,10.03
2023-04-01T00:16:36.168Z,10.18
2023-04-01T00:19:03.992Z,10.32
2023-04-01T00:21:31.398Z,10.55
2023-04-01T00:23:58.860Z,10.23
2023-04-01T00:26:26.354Z,9.97
2023-04-01T00:28:53.879Z,10.08
2023-04-01T00:31:21.820Z,10.19
2023-04-01T00:33:49.231Z,10.30
2023-04-01T00:36:19.487Z,10.09
2023-04-01T00:38:46.993Z,9.90
2023-04-01T00:41:16.728Z,9.35
2023-04-01T00:43:46.293Z,9.09
2023-04-01T00:46:13.459Z,8.98
2023-04-01T00:48:48.939Z,9.42
2023-04-01T00:51:21.049Z,9.65
2023-04-01T00:53:53.757Z,9.61
2023-04-01T00:56:45.849Z,9.46
2023-04-01T00:59:17.377Z,9.71
2023-04-01T01:01:44.901Z,9.99
2023-04-01T01:04:41.432Z,10.15
2023-04-01T01:07:34.880Z,10.10
2023-04-01T01:10:19.524Z,9.91
2023-04-01T01:13:26.662Z,9.98
2023-04-01T01:15:57.139Z,10.24
2023-04-01T01:18:37.501Z,10.43
2023-04-01T01:27:18.832Z,9.77
2023-04-01T01:30:01.234Z,9.91
2023-04-01T01:33:11.522Z,9.86
2023-04-01T01:35:40.246Z,9.70
2023-04-01T01:38:22.484Z,9.56
2023-04-01T01:41:01.066Z,9.77
2023-04-01T01:43:33.838Z,9.90
2023-04-01T01:46:08.962Z,9.72
2023-04-01T01:48:37.624Z,9.91
2023-04-01T01:51:09.024Z,9.55
2023-04-01T01:53:36.854Z,9.81
2023-04-01T01:56:05.444Z,10.02
2023-04-01T01:58:51.023Z,10.05
2023-04-01T02:01:27.080Z,10.15
2023-04-01T02:03:58.911Z,10.08
2023-04-01T02:06:29.393Z,9.78
2023-04-01T02:09:06.463Z,10.04
2023-04-01T02:11:42.695Z,9.89
2023-04-01T02:14:14.859Z,9.54
2023-04-01T02:16:54.564Z,10.06
2023-04-01T02:19:26.890Z,10.14
2023-04-01T02:22:00.740Z,9.09
2023-04-01T02:24:31.553Z,9.60
2023-04-01T02:26:59.301Z,9.61
2023-04-01T02:29:28.613Z,9.45
2023-04-01T02:31:57.094Z,8.99
2023-04-01T02:34:25.996Z,8.94
2023-04-01T02:36:54.495Z,9.43
2023-04-01T02:39:21.877Z,9.69
2023-04-01T02:41:49.234Z,9.83
2023-04-01T02:44:17.215Z,9.97
2023-04-01T02:46:45.165Z,10.06
2023-04-01T02:49:12.278Z,10.12
2023-04-01T02:51:40.217Z,9.98
2023-04-01T02:54:08.910Z,10.04
2023-04-01T02:56:36.470Z,10.32
2023-04-01T02:59:04.052Z,10.29
2023-04-01T03:01:31.356Z,10.49
2023-04-01T03:03:58.871Z,10.55
2023-04-01T03:06:26.131Z,10.55
2023-04-01T03:08:53.152Z,10.51
2023-04-01T03:11:20.888Z,10.55
2023-04-01T03:13:48.281Z,10.58
2023-04-01T03:16:15.834Z,10.49
2023-04-01T03:18:42.886Z,10.53
2023-04-01T03:21:18.556Z,10.45
2023-04-01T03:23:45.907Z,10.45
2023-04-01T03:26:13.144Z,10.44
2023-04-01T03:28:40.695Z,10.40
2023-04-01T03:31:07.981Z,10.42
2023-04-01T03:33:42.039Z,10.36
2023-04-01T03:36:09.379Z,10.39
2023-04-01T03:38:37.007Z,10.38
2023-04-01T03:41:04.458Z,10.38
2023-04-01T03:43:33.877Z,10.40
2023-04-01T03:46:01.432Z,10.42
2023-04-01T03:48:29.152Z,10.40
2023-04-01T03:50:56.331Z,10.45
2023-04-01T03:53:24.951Z,10.45
2023-04-01T03:55:54.253Z,10.50
2023-04-01T03:58:21.398Z,10.49
2023-04-01T04:00:48.877Z,10.55
2023-04-01T04:03:16.219Z,10.49
2023-04-01T04:05:50.675Z,10.49
2023-04-01T04:08:19.321Z,10.45
2023-04-01T04:10:47.571Z,10.52
2023-04-01T04:13:14.696Z,10.49
2023-04-01T04:15:50.037Z,10.49
2023-04-01T04:18:17.162Z,10.48
2023-04-01T04:20:52.246Z,10.39
2023-04-01T04:23:20.501Z,10.23
2023-04-01T04:26:03.288Z,10.12
2023-04-01T04:28:31.480Z,10.52
2023-04-01T04:31:00.198Z,10.54
2023-04-01T04:33:28.076Z,10.70
2023-04-01T04:35:59.232Z,10.80
2023-04-01T04:38:27.640Z,10.86
2023-04-01T04:40:55.465Z,10.98
2023-04-01T04:43:22.704Z,11.04
2023-04-01T04:45:50.651Z,11.00
2023-04-01T04:48:20.137Z,11.00
2023-04-01T04:50:51.734Z,11.29
2023-04-01T04:53:22.206Z,11.44
2023-04-01T04:55:51.283Z,11.48
2023-04-01T04:58:30.839Z,11.47
2023-04-01T05:00:58.571Z,11.50
2023-04-01T05:03:30.268Z,11.49
2023-04-01T05:05:57.702Z,11.22
2023-04-01T05:08:24.982Z,11.18
2023-04-01T05:10:52.128Z,11.22
2023-04-01T05:13:19.329Z,11.53
2023-04-01T05:15:48.209Z,11.48
2023-04-01T05:18:15.628Z,11.32
2023-04-01T05:20:51.330Z,11.13
2023-04-01T05:23:19.371Z,11.16
2023-04-01T05:25:47.009Z,11.32
2023-04-01T05:28:14.366Z,11.37
2023-04-01T05:30:44.533Z,11.25
2023-04-01T05:33:22.006Z,11.13
2023-04-01T05:35:49.297Z,11.06
2023-04-01T05:38:16.634Z,10.85
2023-04-01T05:40:43.740Z,10.83
2023-04-01T05:43:11.127Z,10.95
2023-04-01T05:45:38.767Z,11.10
2023-04-01T05:48:14.727Z,11.10
2023-04-01T05:50:43.142Z,11.14
2023-04-01T05:53:11.879Z,11.25
2023-04-01T05:55:42.447Z,11.37
2023-04-01T05:58:09.769Z,11.25
2023-04-01T06:00:40.025Z,11.49
2023-04-01T06:03:08.217Z,11.82
2023-04-01T06:05:43.434Z,11.88
2023-04-01T06:08:20.474Z,11.92
2023-04-01T06:11:20.319Z,11.81
2023-04-01T06:14:05.050Z,11.76
2023-04-01T06:16:38.651Z,11.90
2023-04-01T06:19:28.374Z,12.13
2023-04-01T06:22:29.785Z,12.12
2023-04-01T06:25:00.655Z,11.65
2023-04-01T06:27:56.777Z,11.63
2023-04-01T06:30:36.775Z,11.76
2023-04-01T06:33:31.392Z,11.78
2023-04-01T06:36:16.272Z,11.70
2023-04-01T06:38:49.219Z,11.51
2023-04-01T06:41:28.202Z,11.71
2023-04-01T06:44:21.704Z,12.03
2023-04-01T06:47:12.741Z,11.93
2023-04-01T06:50:14.369Z,11.84
2023-04-01T06:53:18.460Z,11.91
2023-04-01T06:56:11.952Z,12.13
2023-04-01T06:59:20.308Z,12.35
2023-04-01T07:01:56.929Z,12.14
2023-04-01T07:04:32.466Z,12.16
2023-04-01T07:07:18.628Z,12.22
2023-04-01T07:10:02.444Z,12.74
2023-04-01T07:12:37.966Z,12.94
2023-04-01T07:15:35.140Z,12.99
2023-04-01T07:18:11.507Z,12.87
2023-04-01T07:20:40.034Z,13.03
2023-04-01T07:23:28.409Z,12.99
2023-04-01T07:26:26.090Z,12.80
2023-04-01T07:29:02.453Z,12.90
2023-04-01T07:31:51.688Z,12.63
2023-04-01T07:34:42.130Z,12.62
2023-04-01T07:37:26.166Z,12.77
2023-04-01T07:40:25.477Z,12.91
2023-04-01T07:43:11.103Z,12.88
2023-04-01T07:45:53.021Z,12.93
2023-04-01T07:48:40.652Z,12.88
2023-04-01T07:51:30.213Z,13.11
2023-04-01T07:54:21.546Z,13.17
2023-04-01T07:56:58.004Z,13.23
2023-04-01T08:00:11.342Z,13.30
2023-04-01T08:03:29.149Z,13.81
2023-04-01T08:06:07.148Z,14.13
2023-04-01T08:08:54.821Z,14.24
2023-04-01T08:12:07.673Z,14.18
2023-04-01T08:15:28.519Z,14.20
2023-04-01T08:18:48.070Z,14.64
2023-04-01T08:21:53.834Z,14.90
2023-04-01T08:24:48.173Z,15.16
2023-04-01T08:28:14.411Z,14.95
2023-04-01T08:30:57.660Z,14.88
2023-04-01T08:33:30.598Z,14.94
2023-04-01T08:36:32.432Z,14.56
2023-04-01T08:39:24.502Z,14.53
2023-04-01T08:42:06.531Z,14.38
2023-04-01T08:45:14.273Z,14.66
2023-04-01T08:48:10.006Z,14.76
2023-04-01T08:51:16.269Z,14.66
2023-04-01T08:54:21.070Z,14.89
2023-04-01T08:57:23.045Z,15.36
2023-04-01T09:00:28.988Z,15.48
2023-04-01T09:03:50.037Z,15.59
2023-04-01T09:06:38.386Z,15.40
2023-04-01T09:09:11.324Z,15.61
2023-04-01T09:11:41.904Z,15.57
2023-04-01T09:14:30.197Z,15.45
2023-04-01T09:17:44.931Z,15.74
2023-04-01T09:20:40.640Z,15.50
2023-04-01T09:23:30.531Z,15.71
2023-04-01T09:26:25.036Z,15.40
2023-04-01T09:29:38.203Z,15.13
2023-04-01T09:32:07.065Z,15.11
2023-04-01T09:34:56.195Z,15.40
2023-04-01T09:37:59.339Z,15.12
2023-04-01T09:40:38.908Z,15.33
2023-04-01T09:43:20.761Z,15.43
2023-04-01T10:17:40.050Z,15.42
2023-04-01T10:20:51.634Z,15.80
2023-04-01T10:24:09.373Z,16.24
2023-04-01T10:26:55.598Z,16.58
2023-04-01T10:29:48.885Z,17.13
2023-04-01T10:32:39.308Z,17.35
2023-04-01T10:35:41.704Z,17.13
2023-04-01T10:38:41.789Z,17.54
2023-04-01T10:41:29.590Z,17.71
2023-04-01T10:44:46.760Z,17.45
2023-04-01T10:48:03.089Z,17.64
2023-04-01T10:50:46.813Z,17.47
2023-04-01T10:53:50.112Z,17.98
2023-04-01T10:56:38.434Z,18.45
2023-04-01T10:59:45.805Z,18.49
2023-04-01T11:03:16.787Z,18.14
2023-04-01T11:07:11.789Z,17.91
2023-04-01T11:09:39.531Z,18.36
2023-04-01T11:12:18.857Z,18.63
2023-04-01T11:15:16.969Z,18.48
2023-04-01T11:17:56.316Z,18.44
2023-04-01T11:20:44.321Z,18.79
2023-04-01T11:23:23.411Z,18.61
2023-04-01T11:26:09.325Z,18.90
2023-04-01T11:29:24.652Z,18.67
2023-04-01T11:32:14.748Z,18.56
2023-04-01T11:34:47.382Z,17.97
2023-04-01T11:37:20.272Z,18.52
2023-04-01T11:40:10.220Z,18.45
2023-04-01T11:43:40.312Z,18.12
2023-04-01T11:46:42.611Z,18.64
2023-04-01T11:49:47.855Z,18.63
2023-04-01T11:53:06.754Z,18.51
2023-04-01T12:14:12.899Z,18.94
2023-04-01T12:19:51.233Z,18.87
2023-04-01T12:22:33.874Z,18.28
2023-04-01T12:25:22.570Z,18.48
2023-04-01T12:28:01.372Z,18.53
2023-04-01T12:30:33.628Z,18.65
2023-04-01T12:33:28.943Z,18.76
2023-04-01T12:36:09.676Z,18.64
2023-04-01T12:38:43.377Z,18.51
2023-04-01T12:41:48.989Z,18.71
2023-04-01T12:44:35.538Z,18.48
2023-04-01T12:47:22.875Z,18.38
2023-04-01T12:50:03.067Z,18.11
2023-04-01T12:52:40.651Z,17.91
2023-04-01T12:55:50.466Z,17.89
2023-04-01T12:58:36.143Z,17.91
2023-04-01T13:01:32.918Z,17.69
2023-04-01T13:04:18.002Z,17.53
2023-04-01T13:07:10.082Z,17.65
2023-04-01T13:09:55.553Z,17.49
2023-04-01T13:12:37.639Z,17.56
2023-04-01T13:15:13.848Z,17.34
2023-04-01T13:17:53.285Z,17.33
2023-04-01T13:20:38.726Z,17.34
2023-04-01T13:23:35.406Z,17.40
2023-04-01T13:26:19.852Z,17.11
2023-04-01T13:29:05.992Z,17.03
2023-04-01T13:31:48.302Z,17.10
2023-04-01T13:34:49.154Z,17.45
2023-04-01T13:38:04.022Z,17.52
2023-04-01T13:41:01.653Z,17.38
2023-04-01T13:43:45.373Z,17.71
2023-04-01T13:46:36.536Z,17.74
2023-04-01T13:49:09.133Z,18.01
2023-04-01T13:51:54.440Z,17.87
2023-04-01T13:54:47.693Z,18.17
2023-04-01T13:57:23.495Z,18.32
2023-04-01T14:00:06.131Z,18.52
2023-04-01T14:02:58.496Z,18.45
2023-04-01T14:05:43.188Z,18.35
2023-04-01T14:08:32.192Z,18.16
2023-04-01T14:11:20.253Z,18.19
2023-04-01T14:14:10.123Z,18.31
2023-04-01T14:16:56.453Z,18.05
2023-04-01T14:19:41.771Z,18.13
2023-04-01T14:22:40.135Z,18.13
2023-04-01T14:25:16.148Z,18.06
2023-04-01T14:28:08.402Z,17.90
2023-04-01T14:30:50.424Z,17.83
2023-04-01T14:33:39.040Z,17.73
2023-04-01T14:36:16.097Z,17.91
2023-04-01T14:39:04.009Z,17.77
2023-04-01T14:41:54.794Z,17.36
2023-04-01T14:44:42.727Z,17.35
2023-04-01T14:47:19.478Z,17.15
2023-04-01T14:49:49.972Z,17.17
2023-04-01T14:52:23.100Z,16.92
2023-04-01T14:54:52.707Z,16.82
2023-04-01T14:57:26.943Z,16.84
2023-04-01T15:00:18.124Z,16.84
2023-04-01T15:03:01.019Z,16.97
2023-04-01T15:05:51.760Z,16.81
2023-04-01T15:08:24.432Z,16.99
2023-04-01T15:11:20.322Z,16.88
2023-04-01T15:13:48.277Z,17.11
2023-04-01T15:16:41.164Z,16.96
2023-04-01T15:19:43.262Z,16.69
2023-04-01T15:22:28.650Z,17.00
2023-04-01T15:25:39.703Z,16.91
2023-04-01T15:28:23.523Z,16.76
2023-04-01T15:30:56.653Z,16.65
2023-04-01T15:33:38.991Z,16.51
2023-04-01T15:36:11.839Z,16.59
2023-04-01T15:38:47.999Z,16.65
2023-04-01T15:41:42.795Z,16.43
2023-04-01T15:44:48.495Z,16.25
2023-04-01T15:47:27.954Z,16.08
2023-04-01T15:50:21.643Z,16.22
2023-04-01T15:53:12.780Z,16.23
2023-04-01T15:55:48.690Z,16.04
2023-04-01T15:58:49.731Z,15.85
2023-04-01T16:01:36.146Z,15.81
2023-04-01T16:04:25.569Z,15.84
2023-04-01T16:07:23.025Z,15.68
2023-04-01T16:10:05.200Z,15.39
2023-04-01T16:12:52.275Z,15.01
2023-04-01T16:15:32.832Z,15.29
2023-04-01T16:18:23.481Z,15.27
2023-04-01T16:20:57.665Z,15.05
2023-04-01T16:23:36.643Z,14.90
2023-04-01T16:26:23.618Z,14.82
2023-04-01T16:28:54.377Z,15.02
2023-04-01T16:31:44.593Z,14.96
2023-04-01T16:34:33.192Z,14.60
2023-04-01T16:37:15.801Z,14.62
2023-04-01T16:40:19.238Z,14.58
2023-04-01T16:43:17.199Z,14.75
2023-04-01T16:45:54.557Z,14.58
2023-04-01T16:48:35.338Z,14.43
2023-04-01T16:51:16.438Z,14.47
2023-04-01T16:54:07.968Z,14.52
2023-04-01T16:56:46.822Z,14.51
2023-04-01T16:59:21.486Z,14.32
2023-04-01T17:01:56.955Z,14.26
2023-04-01T17:04:46.574Z,14.32
2023-04-01T17:07:52.517Z,14.49
2023-04-01T17:10:25.574Z,14.37
2023-04-01T17:13:07.772Z,14.22
2023-04-01T17:15:37.897Z,14.22
2023-04-01T17:18:52.059Z,14.41
2023-04-01T17:21:45.098Z,14.36
2023-04-01T17:24:23.958Z,14.17
2023-04-01T17:27:05.878Z,14.06
2023-04-01T17:30:17.964Z,14.06
2023-04-01T17:33:09.793Z,14.23
2023-04-01T17:35:50.019Z,13.98
2023-04-01T17:39:01.941Z,13.84
2023-04-01T17:48:19.784Z,13.95
2023-04-01T17:51:05.735Z,13.89
2023-04-01T17:53:54.381Z,13.79
2023-04-01T17:56:58.666Z,13.73
2023-04-01T17:59:33.052Z,13.76
2023-04-01T18:02:31.894Z,13.48
2023-04-01T18:05:36.138Z,13.32
2023-04-01T18:08:24.029Z,13.29
2023-04-01T18:11:12.481Z,13.44
2023-04-01T18:13:54.294Z,13.40
2023-04-01T18:17:02.188Z,13.36
2023-04-01T18:19:40.108Z,13.31
2023-04-01T18:22:24.625Z,12.59
2023-04-01T18:25:06.604Z,12.93
2023-04-01T18:27:41.734Z,12.20
2023-04-01T18:30:12.919Z,12.64
2023-04-01T18:33:18.265Z,12.36
2023-04-01T18:35:59.339Z,12.64
2023-04-01T18:38:37.630Z,12.95
2023-04-01T18:41:36.561Z,12.13
2023-04-01T18:44:12.192Z,12.28
2023-04-01T18:47:04.331Z,12.27
2023-04-01T18:49:44.416Z,12.41
2023-04-01T18:52:46.829Z,11.95
2023-04-01T18:55:49.137Z,11.46
2023-04-01T18:58:21.963Z,11.22
2023-04-01T19:01:12.672Z,11.25
2023-04-01T19:04:07.435Z,11.06
2023-04-01T19:06:56.759Z,10.95
2023-04-01T19:09:46.823Z,10.90
2023-04-01T19:12:26.171Z,10.91
2023-04-01T19:15:11.362Z,10.85
2023-04-01T19:17:51.099Z,10.61
2023-04-01T19:20:38.327Z,10.50
2023-04-01T19:23:05.165Z,10.46
2023-04-01T19:25:56.483Z,10.45
2023-04-01T19:28:53.250Z,10.37
2023-04-01T19:31:38.407Z,10.30
2023-04-01T19:34:20.739Z,9.96
2023-04-01T19:37:03.746Z,9.49
2023-04-01T19:39:36.910Z,9.24
2023-04-01T19:42:22.857Z,9.16
2023-04-01T19:44:55.822Z,9.15
2023-04-01T19:47:39.610Z,9.22
2023-04-01T19:50:45.545Z,9.16
2023-04-01T19:53:26.364Z,9.15
2023-04-01T19:56:13.126Z,9.15
2023-04-01T19:58:55.652Z,9.08
2023-04-01T20:01:52.385Z,9.02
2023-04-01T20:04:43.453Z,9.01
2023-04-01T20:07:19.760Z,8.98
2023-04-01T20:10:06.836Z,8.94
2023-04-01T20:12:36.892Z,8.90
2023-04-01T20:15:22.639Z,8.87
2023-04-01T20:17:52.245Z,8.83
2023-04-01T20:20:27.511Z,8.79
2023-04-01T20:23:03.749Z,8.76
2023-04-01T20:25:31.231Z,8.74
2023-04-01T20:28:18.598Z,8.74
2023-04-01T20:31:25.844Z,8.79
2023-04-01T20:34:24.105Z,8.86
2023-04-01T20:37:11.782Z,8.90
2023-04-01T20:40:01.893Z,9.00
2023-04-01T20:42:35.225Z,9.06
2023-04-01T20:45:12.240Z,9.02
2023-04-01T20:47:39.598Z,9.05
2023-04-01T20:50:32.985Z,9.02
2023-04-01T20:53:23.944Z,8.98
2023-04-01T20:56:11.450Z,8.96
2023-04-01T20:59:00.003Z,8.90
2023-04-01T21:01:46.216Z,8.92
2023-04-01T21:04:28.629Z,8.91
2023-04-01T21:07:17.301Z,8.89
2023-04-01T21:09:53.638Z,8.82
2023-04-01T21:12:54.018Z,8.79
2023-04-01T21:15:39.653Z,8.76
2023-04-01T21:18:32.520Z,8.77
2023-04-01T21:21:36.006Z,8.80
2023-04-01T21:24:21.702Z,8.76
2023-04-01T21:27:03.479Z,8.75
2023-04-01T21:29:38.854Z,8.78
2023-04-01T21:32:49.227Z,8.84
2023-04-01T21:35:38.153Z,8.84
2023-04-01T21:38:28.348Z,8.91
2023-04-01T21:41:06.314Z,8.92
2023-04-01T21:44:04.559Z,8.84
2023-04-01T21:46:56.286Z,8.82
2023-04-01T21:49:50.317Z,8.77
2023-04-01T21:52:23.270Z,8.67
2023-04-01T21:55:17.659Z,8.64
2023-04-01T21:57:56.676Z,8.71
2023-04-01T22:00:31.599Z,8.70
2023-04-01T22:03:26.869Z,8.64
2023-04-01T22:06:20.618Z,8.64
2023-04-01T22:09:11.154Z,8.65
2023-04-01T22:11:46.092Z,8.64
2023-04-01T22:14:23.031Z,8.68
2023-04-01T22:17:04.365Z,8.75
2023-04-01T22:19:37.476Z,8.77
2023-04-01T22:22:14.519Z,8.84
2023-04-01T22:25:07.455Z,8.88
2023-04-01T22:28:03.441Z,9.06
2023-04-01T22:30:42.731Z,9.10
2023-04-01T22:33:29.055Z,9.14
2023-04-01T22:36:12.736Z,9.09
2023-04-01T22:38:58.924Z,9.07
2023-04-01T22:41:29.080Z,9.14
2023-04-01T22:43:58.217Z,9.33
2023-04-01T22:46:30.503Z,9.25
2023-04-01T22:49:17.586Z,9.43
2023-04-01T22:51:52.712Z,9.34
2023-04-01T22:54:30.807Z,9.26
2023-04-01T22:57:14.204Z,9.06
2023-04-01T23:00:02.101Z,9.11
2023-04-01T23:02:34.397Z,9.06
2023-04-01T23:05:04.901Z,8.94
2023-04-01T23:07:50.146Z,8.81
2023-04-01T23:10:20.174Z,8.67
2023-04-01T23:12:48.595Z,8.65
2023-04-01T23:15:17.422Z,8.59
2023-04-01T23:18:21.237Z,8.65
2023-04-01T23:20:58.533Z,8.73
2023-04-01T23:23:40.525Z,8.65
2023-04-01T23:26:22.102Z,8.57
2023-04-01T23:28:52.005Z,8.50
2023-04-01T23:31:32.801Z,8.53
2023-04-01T23:34:05.577Z,8.44
2023-04-01T23:36:53.357Z,8.33
2023-04-01T23:39:41.180Z,8.39
2023-04-01T23:42:20.944Z,8.28
2023-04-01T23:44:51.520Z,8.24
2023-04-01T23:47:23.710Z,8.30
2023-04-01T23:50:04.397Z,8.19
2023-04-01T23:52:37.039Z,8.05
2023-04-01T23:55:22.928Z,7.92
2023-04-01T23:58:18.310Z,7.88
